sensor_id;sensor_type;location;lat;lon;timestamp;P1;durP1;ratioP1;P2;durP2;ratioP2
18661;SDS011;61528;49.456;11.098;2023-03-31T00:02:02;8.97;;;2.20;;
18661;SDS011;61528;49.456;11.098;2023-03-31T00:04:41;5.67;;;2.10;;
18661;SDS011;61528;49.456;11.098;2023-03-31T00:07:16;3.83;;;1.70;;
18661;SDS011;61528;49.456;11.098;2023-03-31T00:09:48;5.00;;;1.83;;
18661;SDS011;61528;49.456;11.098;2023-03-31T00:12:19;4.57;;;1.90;;
18661;SDS011;61528;49.456;11.098;2023-03-31T00:14:46;3.63;;;2.13;;
18661;SDS011;61528;49.456;11.098;2023-03-31T00:17:12;5.27;;;1.90;;
18661;SDS011;61528;49.456;11.098;2023-03-31T00:19:39;4.73;;;2.10;;
18661;SDS011;61528;49.456;11.098;2023-03-31T00:22:06;3.87;;;1.67;;
18661;SDS011;61528;49.456;11.098;2023-03-31T00:24:32;4.17;;;1.90;;
18661;SDS011;61528;49.456;11.098;2023-03-31T00:26:59;4.00;;;1.63;;
18661;SDS011;61528;49.456;11.098;2023-03-31T00:29:26;3.03;;;1.70;;
18661;SDS011;61528;49.456;11.098;2023-03-31T00:31:52;5.90;;;1.70;;
18661;SDS011;61528;49.456;11.098;2023-03-31T00:34:19;3.00;;;1.67;;
18661;SDS011;61528;49.456;11.098;2023-03-31T00:36:45;4.07;;;1.80;;
18661;SDS011;61528;49.456;11.098;2023-03-31T00:39:12;5.67;;;1.70;;
18661;SDS011;61528;49.456;11.098;2023-03-31T00:41:38;5.17;;;2.23;;
18661;SDS011;61528;49.456;11.098;2023-03-31T00:46:36;3.83;;;2.03;;
18661;SDS011;61528;49.456;11.098;2023-03-31T00:49:04;3.93;;;1.67;;
18661;SDS011;61528;49.456;11.098;2023-03-31T00:51:31;7.13;;;1.73;;
18661;SDS011;61528;49.456;11.098;2023-03-31T00:54:00;4.10;;;1.60;;
18661;SDS011;61528;49.456;11.098;2023-03-31T00:56:30;5.87;;;1.63;;
18661;SDS011;61528;49.456;11.098;2023-03-31T00:58:59;4.27;;;1.90;;
18661;SDS011;61528;49.456;11.098;2023-03-31T01:01:27;4.77;;;1.70;;
18661;SDS011;61528;49.456;11.098;2023-03-31T01:03:55;3.40;;;1.80;;
18661;SDS011;61528;49.456;11.098;2023-03-31T01:06:21;4.93;;;2.20;;
18661;SDS011;61528;49.456;11.098;2023-03-31T01:08:50;3.57;;;1.80;;
18661;SDS011;61528;49.456;11.098;2023-03-31T01:11:19;4.53;;;2.07;;
18661;SDS011;61528;49.456;11.098;2023-03-31T01:13:47;5.07;;;1.90;;
18661;SDS011;61528;49.456;11.098;2023-03-31T01:16:16;2.73;;;1.97;;
18661;SDS011;61528;49.456;11.098;2023-03-31T01:18:43;4.77;;;2.10;;
18661;SDS011;61528;49.456;11.098;2023-03-31T01:26:58;4.33;;;1.70;;
18661;SDS011;61528;49.456;11.098;2023-03-31T01:47:44;3.80;;;2.27;;
18661;SDS011;61528;49.456;11.098;2023-03-31T01:50:22;3.97;;;1.90;;
18661;SDS011;61528;49.456;11.098;2023-03-31T01:55:33;3.80;;;2.13;;
18661;SDS011;61528;49.456;11.098;2023-03-31T02:01:04;6.80;;;2.00;;
18661;SDS011;61528;49.456;11.098;2023-03-31T02:03:36;6.00;;;2.03;;
18661;SDS011;61528;49.456;11.098;2023-03-31T02:06:05;4.43;;;1.80;;
18661;SDS011;61528;49.456;11.098;2023-03-31T02:08:35;2.70;;;1.63;;
18661;SDS011;61528;49.456;11.098;2023-03-31T02:11:02;2.87;;;1.73;;
18661;SDS011;61528;49.456;11.098;2023-03-31T02:13:28;4.87;;;1.70;;
18661;SDS011;61528;49.456;11.098;2023-03-31T02:15:58;6.07;;;2.10;;
18661;SDS011;61528;49.456;11.098;2023-03-31T02:18:27;5.27;;;1.90;;
18661;SDS011;61528;49.456;11.098;2023-03-31T02:20:57;6.13;;;1.97;;
18661;SDS011;61528;49.456;11.098;2023-03-31T02:23:27;4.17;;;1.70;;
18661;SDS011;61528;49.456;11.098;2023-03-31T02:26:00;3.67;;;2.07;;
18661;SDS011;61528;49.456;11.098;2023-03-31T02:28:33;4.27;;;1.50;;
18661;SDS011;61528;49.456;11.098;2023-03-31T02:31:08;4.93;;;1.97;;
18661;SDS011;61528;49.456;11.098;2023-03-31T02:33:38;3.13;;;1.67;;
18661;SDS011;61528;49.456;11.098;2023-03-31T02:36:04;1.67;;;1.37;;
18661;SDS011;61528;49.456;11.098;2023-03-31T02:38:32;8.07;;;1.80;;
18661;SDS011;61528;49.456;11.098;2023-03-31T02:41:00;3.20;;;1.77;;
18661;SDS011;61528;49.456;11.098;2023-03-31T02:43:26;5.57;;;2.20;;
18661;SDS011;61528;49.456;11.098;2023-03-31T02:45:55;3.53;;;1.70;;
18661;SDS011;61528;49.456;11.098;2023-03-31T02:48:25;3.93;;;1.70;;
18661;SDS011;61528;49.456;11.098;2023-03-31T03:09:03;3.10;;;1.43;;
18661;SDS011;61528;49.456;11.098;2023-03-31T03:16:48;5.10;;;1.73;;
18661;SDS011;61528;49.456;11.098;2023-03-31T03:19:20;5.53;;;1.80;;
18661;SDS011;61528;49.456;11.098;2023-03-31T03:21:47;5.80;;;2.40;;
18661;SDS011;61528;49.456;11.098;2023-03-31T03:24:17;3.50;;;1.63;;
18661;SDS011;61528;49.456;11.098;2023-03-31T03:26:44;4.93;;;2.13;;
18661;SDS011;61528;49.456;11.098;2023-03-31T03:29:10;3.93;;;1.53;;
18661;SDS011;61528;49.456;11.098;2023-03-31T03:31:40;4.17;;;1.80;;
18661;SDS011;61528;49.456;11.098;2023-03-31T03:34:06;7.13;;;1.57;;
18661;SDS011;61528;49.456;11.098;2023-03-31T03:36:36;6.60;;;1.90;;
18661;SDS011;61528;49.456;11.098;2023-03-31T03:39:03;4.47;;;1.70;;
18661;SDS011;61528;49.456;11.098;2023-03-31T03:41:29;4.90;;;1.90;;
18661;SDS011;61528;49.456;11.098;2023-03-31T03:43:57;4.30;;;1.77;;
18661;SDS011;61528;49.456;11.098;2023-03-31T03:46:24;3.10;;;1.70;;
18661;SDS011;61528;49.456;11.098;2023-03-31T03:48:52;5.47;;;1.90;;
18661;SDS011;61528;49.456;11.098;2023-03-31T03:51:19;3.23;;;1.47;;
18661;SDS011;61528;49.456;11.098;2023-03-31T03:53:45;4.10;;;1.70;;
18661;SDS011;61528;49.456;11.098;2023-03-31T03:56:12;2.63;;;1.70;;
18661;SDS011;61528;49.456;11.098;2023-03-31T03:58:38;3.97;;;1.80;;
18661;SDS011;61528;49.456;11.098;2023-03-31T04:01:04;5.20;;;1.97;;
18661;SDS011;61528;49.456;11.098;2023-03-31T04:03:31;3.70;;;1.97;;
18661;SDS011;61528;49.456;11.098;2023-03-31T04:05:57;4.70;;;1.80;;
18661;SDS011;61528;49.456;11.098;2023-03-31T04:08:23;7.13;;;1.80;;
18661;SDS011;61528;49.456;11.098;2023-03-31T04:10:50;5.83;;;1.80;;
18661;SDS011;61528;49.456;11.098;2023-03-31T04:13:16;3.10;;;1.80;;
18661;SDS011;61528;49.456;11.098;2023-03-31T04:15:43;4.13;;;1.70;;
18661;SDS011;61528;49.456;11.098;2023-03-31T04:18:10;6.57;;;2.00;;
18661;SDS011;61528;49.456;11.098;2023-03-31T04:20:43;5.03;;;1.90;;
18661;SDS011;61528;49.456;11.098;2023-03-31T04:23:10;3.57;;;1.97;;
18661;SDS011;61528;49.456;11.098;2023-03-31T04:25:39;6.60;;;2.30;;
18661;SDS011;61528;49.456;11.098;2023-03-31T04:28:10;7.03;;;2.20;;
18661;SDS011;61528;49.456;11.098;2023-03-31T04:30:38;4.17;;;2.20;;
18661;SDS011;61528;49.456;11.098;2023-03-31T04:33:05;4.67;;;2.20;;
18661;SDS011;61528;49.456;11.098;2023-03-31T04:35:31;4.00;;;2.13;;
18661;SDS011;61528;49.456;11.098;2023-03-31T04:38:12;6.70;;;2.20;;
18661;SDS011;61528;49.456;11.098;2023-03-31T04:40:42;7.13;;;2.90;;
18661;SDS011;61528;49.456;11.098;2023-03-31T04:43:08;4.33;;;2.60;;
18661;SDS011;61528;49.456;11.098;2023-03-31T04:45:34;5.67;;;2.90;;
18661;SDS011;61528;49.456;11.098;2023-03-31T04:48:00;6.27;;;2.63;;
18661;SDS011;61528;49.456;11.098;2023-03-31T04:50:27;9.27;;;2.97;;
18661;SDS011;61528;49.456;11.098;2023-03-31T04:52:53;5.60;;;2.47;;
18661;SDS011;61528;49.456;11.098;2023-03-31T04:55:19;5.77;;;2.47;;
18661;SDS011;61528;49.456;11.098;2023-03-31T04:57:45;6.77;;;2.67;;
18661;SDS011;61528;49.456;11.098;2023-03-31T05:00:12;5.40;;;2.60;;
18661;SDS011;61528;49.456;11.098;2023-03-31T05:02:38;5.73;;;2.30;;
18661;SDS011;61528;49.456;11.098;2023-03-31T05:05:05;6.47;;;2.63;;
18661;SDS011;61528;49.456;11.098;2023-03-31T05:07:31;7.37;;;2.87;;
18661;SDS011;61528;49.456;11.098;2023-03-31T05:09:57;6.53;;;2.90;;
18661;SDS011;61528;49.456;11.098;2023-03-31T05:12:23;5.00;;;2.47;;
18661;SDS011;61528;49.456;11.098;2023-03-31T05:14:50;6.07;;;2.30;;
18661;SDS011;61528;49.456;11.098;2023-03-31T05:17:16;3.93;;;2.47;;
18661;SDS011;61528;49.456;11.098;2023-03-31T05:19:42;3.97;;;2.20;;
18661;SDS011;61528;49.456;11.098;2023-03-31T05:22:11;5.83;;;2.23;;
18661;SDS011;61528;49.456;11.098;2023-03-31T05:24:38;7.03;;;2.27;;
18661;SDS011;61528;49.456;11.098;2023-03-31T05:27:04;3.67;;;2.23;;
18661;SDS011;61528;49.456;11.098;2023-03-31T05:29:30;6.80;;;2.70;;
18661;SDS011;61528;49.456;11.098;2023-03-31T05:31:57;6.43;;;2.53;;
18661;SDS011;61528;49.456;11.098;2023-03-31T05:34:23;4.63;;;2.23;;
18661;SDS011;61528;49.456;11.098;2023-03-31T05:36:53;5.90;;;2.53;;
18661;SDS011;61528;49.456;11.098;2023-03-31T05:39:21;3.90;;;2.43;;
18661;SDS011;61528;49.456;11.098;2023-03-31T05:41:48;8.73;;;4.73;;
18661;SDS011;61528;49.456;11.098;2023-03-31T05:44:14;9.80;;;4.20;;
18661;SDS011;61528;49.456;11.098;2023-03-31T05:46:41;5.03;;;2.90;;
18661;SDS011;61528;49.456;11.098;2023-03-31T05:49:07;5.23;;;3.30;;
18661;SDS011;61528;49.456;11.098;2023-03-31T05:51:35;5.20;;;2.93;;
18661;SDS011;61528;49.456;11.098;2023-03-31T05:54:01;6.43;;;2.60;;
18661;SDS011;61528;49.456;11.098;2023-03-31T05:56:27;2.93;;;2.10;;
18661;SDS011;61528;49.456;11.098;2023-03-31T05:58:54;3.90;;;2.00;;
18661;SDS011;61528;49.456;11.098;2023-03-31T06:01:20;3.53;;;2.17;;
18661;SDS011;61528;49.456;11.098;2023-03-31T06:03:48;5.37;;;2.30;;
18661;SDS011;61528;49.456;11.098;2023-03-31T06:06:14;6.13;;;2.47;;
18661;SDS011;61528;49.456;11.098;2023-03-31T06:08:41;6.57;;;2.40;;
18661;SDS011;61528;49.456;11.098;2023-03-31T06:11:08;3.20;;;2.20;;
18661;SDS011;61528;49.456;11.098;2023-03-31T06:13:35;6.00;;;2.40;;
18661;SDS011;61528;49.456;11.098;2023-03-31T06:16:01;6.40;;;2.50;;
18661;SDS011;61528;49.456;11.098;2023-03-31T06:18:28;5.23;;;2.37;;
18661;SDS011;61528;49.456;11.098;2023-03-31T06:20:55;4.97;;;2.23;;
18661;SDS011;61528;49.456;11.098;2023-03-31T06:23:22;4.43;;;2.20;;
18661;SDS011;61528;49.456;11.098;2023-03-31T06:25:50;3.93;;;2.13;;
18661;SDS011;61528;49.456;11.098;2023-03-31T06:28:16;7.63;;;3.40;;
18661;SDS011;61528;49.456;11.098;2023-03-31T06:30:42;5.47;;;3.27;;
18661;SDS011;61528;49.456;11.098;2023-03-31T06:33:08;7.07;;;2.30;;
18661;SDS011;61528;49.456;11.098;2023-03-31T06:35:38;5.03;;;2.27;;
18661;SDS011;61528;49.456;11.098;2023-03-31T06:38:05;4.13;;;2.00;;
18661;SDS011;61528;49.456;11.098;2023-03-31T06:40:31;5.60;;;2.40;;
18661;SDS011;61528;49.456;11.098;2023-03-31T06:42:57;5.03;;;2.57;;
18661;SDS011;61528;49.456;11.098;2023-03-31T06:45:24;5.23;;;2.80;;
18661;SDS011;61528;49.456;11.098;2023-03-31T06:47:50;5.93;;;2.60;;
18661;SDS011;61528;49.456;11.098;2023-03-31T06:50:16;5.93;;;3.00;;
18661;SDS011;61528;49.456;11.098;2023-03-31T06:52:42;6.53;;;3.50;;
18661;SDS011;61528;49.456;11.098;2023-03-31T06:55:09;8.60;;;3.30;;
18661;SDS011;61528;49.456;11.098;2023-03-31T06:57:37;6.60;;;3.30;;
18661;SDS011;61528;49.456;11.098;2023-03-31T07:00:03;8.53;;;3.93;;
18661;SDS011;61528;49.456;11.098;2023-03-31T07:02:31;9.37;;;5.43;;
18661;SDS011;61528;49.456;11.098;2023-03-31T07:04:58;14.80;;;5.87;;
18661;SDS011;61528;49.456;11.098;2023-03-31T07:07:24;9.83;;;6.23;;
18661;SDS011;61528;49.456;11.098;2023-03-31T07:09:51;10.20;;;4.40;;
18661;SDS011;61528;49.456;11.098;2023-03-31T07:12:18;6.80;;;4.43;;
18661;SDS011;61528;49.456;11.098;2023-03-31T07:14:44;15.10;;;6.80;;
18661;SDS011;61528;49.456;11.098;2023-03-31T07:17:11;10.63;;;5.87;;
18661;SDS011;61528;49.456;11.098;2023-03-31T07:19:37;11.00;;;5.90;;
18661;SDS011;61528;49.456;11.098;2023-03-31T07:22:06;9.10;;;4.83;;
18661;SDS011;61528;49.456;11.098;2023-03-31T07:24:33;10.23;;;4.50;;
18661;SDS011;61528;49.456;11.098;2023-03-31T07:26:59;8.03;;;4.23;;
18661;SDS011;61528;49.456;11.098;2023-03-31T07:32:11;9.77;;;4.37;;
18661;SDS011;61528;49.456;11.098;2023-03-31T07:34:37;10.43;;;3.97;;
18661;SDS011;61528;49.456;11.098;2023-03-31T07:37:05;10.27;;;4.70;;
18661;SDS011;61528;49.456;11.098;2023-03-31T07:39:32;6.33;;;3.83;;
18661;SDS011;61528;49.456;11.098;2023-03-31T07:41:58;7.40;;;3.87;;
18661;SDS011;61528;49.456;11.098;2023-03-31T07:44:25;8.80;;;4.40;;
18661;SDS011;61528;49.456;11.098;2023-03-31T07:46:51;6.97;;;4.03;;
18661;SDS011;61528;49.456;11.098;2023-03-31T07:49:17;4.57;;;3.73;;
18661;SDS011;61528;49.456;11.098;2023-03-31T07:51:44;9.23;;;5.17;;
18661;SDS011;61528;49.456;11.098;2023-03-31T07:54:10;6.20;;;4.00;;
18661;SDS011;61528;49.456;11.098;2023-03-31T07:56:37;6.80;;;3.90;;
18661;SDS011;61528;49.456;11.098;2023-03-31T07:59:04;9.07;;;4.43;;
18661;SDS011;61528;49.456;11.098;2023-03-31T08:01:31;11.33;;;5.00;;
18661;SDS011;61528;49.456;11.098;2023-03-31T08:03:57;7.53;;;4.80;;
18661;SDS011;61528;49.456;11.098;2023-03-31T08:06:24;10.07;;;4.90;;
18661;SDS011;61528;49.456;11.098;2023-03-31T08:08:51;8.63;;;4.93;;
18661;SDS011;61528;49.456;11.098;2023-03-31T08:11:17;8.67;;;4.87;;
18661;SDS011;61528;49.456;11.098;2023-03-31T08:13:46;7.37;;;4.80;;
18661;SDS011;61528;49.456;11.098;2023-03-31T08:16:13;7.87;;;5.47;;
18661;SDS011;61528;49.456;11.098;2023-03-31T08:18:39;8.77;;;5.43;;
18661;SDS011;61528;49.456;11.098;2023-03-31T08:21:06;11.63;;;5.50;;
18661;SDS011;61528;49.456;11.098;2023-03-31T08:23:37;9.27;;;6.27;;
18661;SDS011;61528;49.456;11.098;2023-03-31T08:26:10;11.30;;;5.80;;
18661;SDS011;61528;49.456;11.098;2023-03-31T08:28:37;12.80;;;6.23;;
18661;SDS011;61528;49.456;11.098;2023-03-31T08:31:07;8.87;;;5.73;;
18661;SDS011;61528;49.456;11.098;2023-03-31T08:33:34;9.93;;;6.00;;
18661;SDS011;61528;49.456;11.098;2023-03-31T08:36:04;10.37;;;6.40;;
18661;SDS011;61528;49.456;11.098;2023-03-31T08:38:33;13.27;;;6.33;;
18661;SDS011;61528;49.456;11.098;2023-03-31T08:41:02;10.10;;;6.67;;
18661;SDS011;61528;49.456;11.098;2023-03-31T08:43:42;13.33;;;6.23;;
18661;SDS011;61528;49.456;11.098;2023-03-31T08:46:10;8.33;;;5.83;;
18661;SDS011;61528;49.456;11.098;2023-03-31T08:48:38;12.57;;;6.30;;
18661;SDS011;61528;49.456;11.098;2023-03-31T08:51:19;5.57;;;4.80;;
18661;SDS011;61528;49.456;11.098;2023-03-31T08:53:48;8.43;;;4.67;;
18661;SDS011;61528;49.456;11.098;2023-03-31T08:56:16;7.57;;;5.43;;
18661;SDS011;61528;49.456;11.098;2023-03-31T08:58:43;10.63;;;5.13;;
18661;SDS011;61528;49.456;11.098;2023-03-31T09:04:03;9.87;;;5.17;;
18661;SDS011;61528;49.456;11.098;2023-03-31T09:06:35;8.77;;;5.73;;
18661;SDS011;61528;49.456;11.098;2023-03-31T09:09:02;9.07;;;5.83;;
18661;SDS011;61528;49.456;11.098;2023-03-31T09:11:50;8.70;;;4.87;;
18661;SDS011;61528;49.456;11.098;2023-03-31T09:14:37;7.67;;;5.27;;
18661;SDS011;61528;49.456;11.098;2023-03-31T09:19:40;7.47;;;4.27;;
18661;SDS011;61528;49.456;11.098;2023-03-31T09:22:10;7.57;;;4.50;;
18661;SDS011;61528;49.456;11.098;2023-03-31T09:27:13;5.90;;;4.63;;
18661;SDS011;61528;49.456;11.098;2023-03-31T09:29:57;7.90;;;4.77;;
18661;SDS011;61528;49.456;11.098;2023-03-31T09:32:26;5.47;;;4.43;;
18661;SDS011;61528;49.456;11.098;2023-03-31T09:37:38;6.27;;;4.90;;
18661;SDS011;61528;49.456;11.098;2023-03-31T09:40:05;8.03;;;4.60;;
18661;SDS011;61528;49.456;11.098;2023-03-31T09:42:35;8.30;;;4.40;;
18661;SDS011;61528;49.456;11.098;2023-03-31T09:45:02;6.40;;;4.30;;
18661;SDS011;61528;49.456;11.098;2023-03-31T09:47:38;8.70;;;5.20;;
18661;SDS011;61528;49.456;11.098;2023-03-31T09:50:07;6.93;;;4.77;;
18661;SDS011;61528;49.456;11.098;2023-03-31T09:52:36;5.60;;;5.00;;
18661;SDS011;61528;49.456;11.098;2023-03-31T09:55:03;6.87;;;4.63;;
18661;SDS011;61528;49.456;11.098;2023-03-31T09:57:34;4.57;;;4.00;;
18661;SDS011;61528;49.456;11.098;2023-03-31T10:00:14;6.03;;;3.90;;
18661;SDS011;61528;49.456;11.098;2023-03-31T10:08:11;3.60;;;2.57;;
18661;SDS011;61528;49.456;11.098;2023-03-31T10:10:42;5.47;;;2.40;;
18661;SDS011;61528;49.456;11.098;2023-03-31T10:13:10;3.93;;;2.80;;
18661;SDS011;61528;49.456;11.098;2023-03-31T10:15:39;2.77;;;2.13;;
18661;SDS011;61528;49.456;11.098;2023-03-31T10:18:05;3.47;;;2.30;;
18661;SDS011;61528;49.456;11.098;2023-03-31T10:23:17;3.90;;;2.67;;
18661;SDS011;61528;49.456;11.098;2023-03-31T10:25:47;4.57;;;2.40;;
18661;SDS011;61528;49.456;11.098;2023-03-31T10:28:16;4.97;;;1.97;;
18661;SDS011;61528;49.456;11.098;2023-03-31T10:30:46;3.80;;;2.13;;
18661;SDS011;61528;49.456;11.098;2023-03-31T10:33:15;2.77;;;2.10;;
18661;SDS011;61528;49.456;11.098;2023-03-31T10:35:43;4.07;;;1.70;;
18661;SDS011;61528;49.456;11.098;2023-03-31T10:38:11;5.73;;;2.30;;
18661;SDS011;61528;49.456;11.098;2023-03-31T10:40:39;4.37;;;1.90;;
18661;SDS011;61528;49.456;11.098;2023-03-31T10:46:05;5.70;;;2.00;;
18661;SDS011;61528;49.456;11.098;2023-03-31T10:48:32;4.70;;;2.10;;
18661;SDS011;61528;49.456;11.098;2023-03-31T10:51:10;5.67;;;1.83;;
18661;SDS011;61528;49.456;11.098;2023-03-31T10:53:40;5.40;;;2.07;;
18661;SDS011;61528;49.456;11.098;2023-03-31T10:58:51;4.30;;;1.80;;
18661;SDS011;61528;49.456;11.098;2023-03-31T11:01:36;4.40;;;2.10;;
18661;SDS011;61528;49.456;11.098;2023-03-31T11:04:28;3.67;;;1.50;;
18661;SDS011;61528;49.456;11.098;2023-03-31T11:12:05;5.23;;;1.80;;
18661;SDS011;61528;49.456;11.098;2023-03-31T11:17:21;3.90;;;1.67;;
18661;SDS011;61528;49.456;11.098;2023-03-31T11:25:21;3.57;;;1.77;;
18661;SDS011;61528;49.456;11.098;2023-03-31T11:30:35;3.80;;;1.50;;
18661;SDS011;61528;49.456;11.098;2023-03-31T11:41:13;5.93;;;1.50;;
18661;SDS011;61528;49.456;11.098;2023-03-31T11:48:41;5.20;;;1.80;;
18661;SDS011;61528;49.456;11.098;2023-03-31T11:51:15;6.23;;;1.73;;
18661;SDS011;61528;49.456;11.098;2023-03-31T11:53:45;4.43;;;1.70;;
18661;SDS011;61528;49.456;11.098;2023-03-31T11:56:12;6.33;;;1.60;;
18661;SDS011;61528;49.456;11.098;2023-03-31T11:58:52;6.10;;;1.57;;
18661;SDS011;61528;49.456;11.098;2023-03-31T12:04:20;2.67;;;1.17;;
18661;SDS011;61528;49.456;11.098;2023-03-31T12:06:51;2.47;;;1.17;;
18661;SDS011;61528;49.456;11.098;2023-03-31T12:09:33;2.93;;;1.10;;
18661;SDS011;61528;49.456;11.098;2023-03-31T12:12:06;2.10;;;1.03;;
18661;SDS011;61528;49.456;11.098;2023-03-31T12:19:39;4.37;;;1.10;;
18661;SDS011;61528;49.456;11.098;2023-03-31T12:22:12;3.37;;;1.47;;
18661;SDS011;61528;49.456;11.098;2023-03-31T12:24:40;2.27;;;1.20;;
18661;SDS011;61528;49.456;11.098;2023-03-31T12:29:37;2.10;;;1.13;;
18661;SDS011;61528;49.456;11.098;2023-03-31T12:32:12;3.37;;;1.00;;
18661;SDS011;61528;49.456;11.098;2023-03-31T12:34:50;1.87;;;1.00;;
18661;SDS011;61528;49.456;11.098;2023-03-31T12:37:28;3.50;;;1.20;;
18661;SDS011;61528;49.456;11.098;2023-03-31T12:40:01;2.33;;;1.00;;
18661;SDS011;61528;49.456;11.098;2023-03-31T12:42:34;2.70;;;1.50;;
18661;SDS011;61528;49.456;11.098;2023-03-31T12:48:03;1.27;;;0.70;;
18661;SDS011;61528;49.456;11.098;2023-03-31T12:50:43;2.60;;;1.07;;
18661;SDS011;61528;49.456;11.098;2023-03-31T12:55:46;2.13;;;1.00;;
18661;SDS011;61528;49.456;11.098;2023-03-31T13:01:05;4.87;;;1.43;;
18661;SDS011;61528;49.456;11.098;2023-03-31T13:08:53;3.67;;;0.90;;
18661;SDS011;61528;49.456;11.098;2023-03-31T13:16:27;1.87;;;0.80;;
18661;SDS011;61528;49.456;11.098;2023-03-31T13:18:54;4.27;;;1.40;;
18661;SDS011;61528;49.456;11.098;2023-03-31T13:21:21;4.90;;;1.10;;
18661;SDS011;61528;49.456;11.098;2023-03-31T13:23:47;2.97;;;1.10;;
18661;SDS011;61528;49.456;11.098;2023-03-31T13:26:34;1.73;;;0.70;;
18661;SDS011;61528;49.456;11.098;2023-03-31T13:34:38;3.70;;;1.00;;
18661;SDS011;61528;49.456;11.098;2023-03-31T13:37:18;5.50;;;2.67;;
18661;SDS011;61528;49.456;11.098;2023-03-31T13:40:00;5.50;;;3.07;;
18661;SDS011;61528;49.456;11.098;2023-03-31T13:42:52;3.73;;;2.10;;
18661;SDS011;61528;49.456;11.098;2023-03-31T13:45:33;2.07;;;1.23;;
18661;SDS011;61528;49.456;11.098;2023-03-31T13:50:56;3.17;;;1.00;;
18661;SDS011;61528;49.456;11.098;2023-03-31T13:53:30;1.47;;;1.10;;
18661;SDS011;61528;49.456;11.098;2023-03-31T14:03:47;4.80;;;1.10;;
18661;SDS011;61528;49.456;11.098;2023-03-31T14:08:49;2.70;;;1.00;;
18661;SDS011;61528;49.456;11.098;2023-03-31T14:11:27;4.00;;;1.10;;
18661;SDS011;61528;49.456;11.098;2023-03-31T14:14:04;4.23;;;1.33;;
18661;SDS011;61528;49.456;11.098;2023-03-31T14:16:35;2.63;;;1.10;;
18661;SDS011;61528;49.456;11.098;2023-03-31T14:27:21;5.27;;;1.27;;
18661;SDS011;61528;49.456;11.098;2023-03-31T14:32:25;2.60;;;1.00;;
18661;SDS011;61528;49.456;11.098;2023-03-31T14:37:41;3.47;;;1.40;;
18661;SDS011;61528;49.456;11.098;2023-03-31T14:40:14;3.60;;;1.07;;
18661;SDS011;61528;49.456;11.098;2023-03-31T14:42:41;1.63;;;0.87;;
18661;SDS011;61528;49.456;11.098;2023-03-31T14:45:18;3.00;;;0.90;;
18661;SDS011;61528;49.456;11.098;2023-03-31T14:47:56;2.83;;;1.00;;
18661;SDS011;61528;49.456;11.098;2023-03-31T14:50:44;2.13;;;0.93;;
18661;SDS011;61528;49.456;11.098;2023-03-31T14:53:16;3.07;;;0.70;;
18661;SDS011;61528;49.456;11.098;2023-03-31T14:55:42;1.60;;;0.70;;
18661;SDS011;61528;49.456;11.098;2023-03-31T14:58:10;2.03;;;0.70;;
18661;SDS011;61528;49.456;11.098;2023-03-31T15:00:39;2.47;;;1.00;;
18661;SDS011;61528;49.456;11.098;2023-03-31T15:03:07;2.83;;;0.90;;
18661;SDS011;61528;49.456;11.098;2023-03-31T15:05:34;2.50;;;0.87;;
18661;SDS011;61528;49.456;11.098;2023-03-31T15:08:01;1.77;;;0.87;;
18661;SDS011;61528;49.456;11.098;2023-03-31T15:10:30;2.40;;;0.87;;
18661;SDS011;61528;49.456;11.098;2023-03-31T15:12:58;3.30;;;0.87;;
18661;SDS011;61528;49.456;11.098;2023-03-31T15:15:26;3.13;;;1.00;;
18661;SDS011;61528;49.456;11.098;2023-03-31T15:17:52;2.30;;;0.80;;
18661;SDS011;61528;49.456;11.098;2023-03-31T15:20:24;2.27;;;0.77;;
18661;SDS011;61528;49.456;11.098;2023-03-31T15:22:53;3.10;;;1.20;;
18661;SDS011;61528;49.456;11.098;2023-03-31T15:25:20;2.13;;;0.90;;
18661;SDS011;61528;49.456;11.098;2023-03-31T15:27:51;2.10;;;0.90;;
18661;SDS011;61528;49.456;11.098;2023-03-31T15:30:20;4.00;;;1.33;;
18661;SDS011;61528;49.456;11.098;2023-03-31T15:32:48;2.73;;;0.73;;
18661;SDS011;61528;49.456;11.098;2023-03-31T15:35:30;1.73;;;0.83;;
18661;SDS011;61528;49.456;11.098;2023-03-31T15:37:57;2.60;;;1.00;;
18661;SDS011;61528;49.456;11.098;2023-03-31T15:40:48;1.77;;;0.80;;
18661;SDS011;61528;49.456;11.098;2023-03-31T15:43:18;2.07;;;0.83;;
18661;SDS011;61528;49.456;11.098;2023-03-31T15:45:56;3.70;;;1.00;;
18661;SDS011;61528;49.456;11.098;2023-03-31T15:48:29;3.47;;;1.27;;
18661;SDS011;61528;49.456;11.098;2023-03-31T15:50:59;3.70;;;1.47;;
18661;SDS011;61528;49.456;11.098;2023-03-31T15:53:26;4.37;;;1.20;;
18661;SDS011;61528;49.456;11.098;2023-03-31T15:55:55;4.83;;;1.40;;
18661;SDS011;61528;49.456;11.098;2023-03-31T15:58:44;3.40;;;1.07;;
18661;SDS011;61528;49.456;11.098;2023-03-31T16:01:10;2.00;;;0.90;;
18661;SDS011;61528;49.456;11.098;2023-03-31T16:03:40;2.90;;;1.03;;
18661;SDS011;61528;49.456;11.098;2023-03-31T16:06:14;2.83;;;1.37;;
18661;SDS011;61528;49.456;11.098;2023-03-31T16:08:41;2.53;;;0.97;;
18661;SDS011;61528;49.456;11.098;2023-03-31T16:11:25;2.40;;;1.00;;
18661;SDS011;61528;49.456;11.098;2023-03-31T16:13:55;3.20;;;1.20;;
18661;SDS011;61528;49.456;11.098;2023-03-31T16:16:30;4.13;;;1.40;;
18661;SDS011;61528;49.456;11.098;2023-03-31T16:19:17;1.83;;;0.80;;
18661;SDS011;61528;49.456;11.098;2023-03-31T16:21:46;1.80;;;0.80;;
18661;SDS011;61528;49.456;11.098;2023-03-31T16:24:17;4.60;;;1.37;;
18661;SDS011;61528;49.456;11.098;2023-03-31T16:26:44;2.40;;;0.87;;
18661;SDS011;61528;49.456;11.098;2023-03-31T16:29:21;2.13;;;1.10;;
18661;SDS011;61528;49.456;11.098;2023-03-31T16:31:47;2.23;;;1.00;;
18661;SDS011;61528;49.456;11.098;2023-03-31T16:34:14;1.97;;;0.83;;
18661;SDS011;61528;49.456;11.098;2023-03-31T16:36:40;2.77;;;1.03;;
18661;SDS011;61528;49.456;11.098;2023-03-31T16:39:06;3.10;;;0.80;;
18661;SDS011;61528;49.456;11.098;2023-03-31T16:41:34;2.20;;;0.90;;
18661;SDS011;61528;49.456;11.098;2023-03-31T16:44:01;2.40;;;0.90;;
18661;SDS011;61528;49.456;11.098;2023-03-31T16:46:28;4.00;;;1.27;;
18661;SDS011;61528;49.456;11.098;2023-03-31T16:48:54;3.00;;;1.10;;
18661;SDS011;61528;49.456;11.098;2023-03-31T16:51:20;3.10;;;1.10;;
18661;SDS011;61528;49.456;11.098;2023-03-31T16:53:47;3.23;;;0.97;;
18661;SDS011;61528;49.456;11.098;2023-03-31T16:56:13;2.33;;;0.90;;
18661;SDS011;61528;49.456;11.098;2023-03-31T16:58:40;2.23;;;0.90;;
18661;SDS011;61528;49.456;11.098;2023-03-31T17:01:08;2.13;;;0.90;;
18661;SDS011;61528;49.456;11.098;2023-03-31T17:03:34;2.33;;;1.10;;
18661;SDS011;61528;49.456;11.098;2023-03-31T17:06:06;3.60;;;1.40;;
18661;SDS011;61528;49.456;11.098;2023-03-31T17:08:35;4.30;;;1.60;;
18661;SDS011;61528;49.456;11.098;2023-03-31T17:11:06;3.23;;;1.10;;
18661;SDS011;61528;49.456;11.098;2023-03-31T17:13:35;2.63;;;0.97;;
18661;SDS011;61528;49.456;11.098;2023-03-31T17:16:01;2.97;;;1.20;;
18661;SDS011;61528;49.456;11.098;2023-03-31T17:18:28;2.13;;;1.10;;
18661;SDS011;61528;49.456;11.098;2023-03-31T17:21:01;4.00;;;1.13;;
18661;SDS011;61528;49.456;11.098;2023-03-31T17:23:27;2.77;;;0.97;;
18661;SDS011;61528;49.456;11.098;2023-03-31T17:25:54;2.47;;;1.00;;
18661;SDS011;61528;49.456;11.098;2023-03-31T17:28:21;3.20;;;1.50;;
18661;SDS011;61528;49.456;11.098;2023-03-31T17:30:47;3.47;;;1.50;;
18661;SDS011;61528;49.456;11.098;2023-03-31T17:33:14;4.03;;;1.70;;
18661;SDS011;61528;49.456;11.098;2023-03-31T17:35:41;4.33;;;2.13;;
18661;SDS011;61528;49.456;11.098;2023-03-31T17:38:08;4.33;;;1.50;;
18661;SDS011;61528;49.456;11.098;2023-03-31T17:40:37;5.43;;;1.60;;